Time;durP1;ratioP1;P1;durP2;ratioP2;P2;SDS_P1;SDS_P2;PMS_P1;PMS_P2;Temp;Humidity;BMP_temperature;BMP_pressure;BME280_temperature;BME280_humidity;BME280_pressure;Samples;Min_cycle;Max_cycle;Signal;HPM_P1;HPM_P2
2024/01/12 00:01:21;;;;;;;63.45;25.20;;;6.00;99.90;;;;;;5014316;28;20040;-84
2024/01/12 00:03:47;;;;;;;64.70;23.65;;;6.00;99.90;;;;;;5015849;28;20025;-84
2024/01/12 00:06:12;;;;;;;65.15;25.10;;;6.00;99.90;;;;;;5033409;28;20032;-84
2024/01/12 00:08:38;;;;;;;60.83;23.77;;;6.00;99.90;;;;;;5017345;28;20033;-84
2024/01/12 00:11:08;;;;;;;62.83;23.15;;;6.00;99.90;;;;;;5015380;28;20021;-84
2024/01/12 00:13:34;;;;;;;54.30;25.65;;;6.00;99.90;;;;;;5013614;28;20108;-84
2024/01/12 00:16:06;;;;;;;67.35;26.48;;;6.00;99.90;;;;;;5013315;28;20121;-84
2024/01/12 00:18:33;;;;;;;63.35;23.98;;;6.00;99.90;;;;;;5027807;28;20430;-83
2024/01/12 00:20:58;;;;;;;61.13;24.98;;;6.00;99.90;;;;;;5014012;28;20025;-84
2024/01/12 00:23:24;;;;;;;74.45;25.67;;;6.00;99.90;;;;;;5013260;28;20029;-83
2024/01/12 00:25:49;;;;;;;66.95;24.73;;;6.00;99.90;;;;;;5013760;28;20387;-84
2024/01/12 00:28:15;;;;;;;66.35;25.33;;;6.00;99.90;;;;;;5017997;28;20017;-85
2024/01/12 00:30:40;;;;;;;67.50;26.33;;;6.00;99.90;;;;;;5014510;28;20026;-84
2024/01/12 00:33:06;;;;;;;59.65;23.58;;;6.00;99.90;;;;;;5015145;28;20025;-84
2024/01/12 00:35:32;;;;;;;66.78;26.63;;;6.00;99.90;;;;;;5016938;28;20055;-84
2024/01/12 00:37:58;;;;;;;69.90;27.52;;;6.00;99.90;;;;;;5029767;28;20025;-85
2024/01/12 00:40:24;;;;;;;70.47;25.95;;;6.00;99.90;;;;;;5020178;28;20032;-84
2024/01/12 00:42:52;;;;;;;67.82;26.10;;;6.00;99.90;;;;;;5034926;28;20449;-84
2024/01/12 00:45:17;;;;;;;70.13;25.85;;;6.00;99.90;;;;;;5014135;28;20045;-86
2024/01/12 00:47:43;;;;;;;81.28;26.70;;;6.00;99.90;;;;;;5014848;28;20048;-84
2024/01/12 00:50:09;;;;;;;65.45;26.27;;;6.00;99.90;;;;;;5010441;28;20088;-85
2024/01/12 00:52:35;;;;;;;69.55;24.83;;;6.00;99.90;;;;;;5019877;28;20025;-83
2024/01/12 00:55:00;;;;;;;69.60;26.77;;;6.00;99.90;;;;;;5018525;28;20090;-84
2024/01/12 00:57:26;;;;;;;64.50;25.70;;;6.00;99.90;;;;;;5014174;28;20026;-84
2024/01/12 00:59:52;;;;;;;74.85;26.73;;;6.00;99.90;;;;;;5012457;28;20032;-84
2024/01/12 01:02:17;;;;;;;74.53;26.00;;;6.00;99.90;;;;;;5013144;28;20029;-85
2024/01/12 01:04:43;;;;;;;75.78;27.38;;;6.00;99.90;;;;;;5018154;28;20514;-84
2024/01/12 01:07:08;;;;;;;70.53;27.85;;;6.00;99.90;;;;;;5017649;28;20487;-84
2024/01/12 01:09:34;;;;;;;74.47;26.35;;;6.00;99.90;;;;;;5012823;28;20487;-84
2024/01/12 01:12:00;;;;;;;69.85;27.52;;;6.00;99.90;;;;;;5015621;28;20032;-85
2024/01/12 01:14:25;;;;;;;63.42;24.33;;;6.00;99.90;;;;;;5012437;28;20131;-84
2024/01/12 01:16:51;;;;;;;67.88;25.33;;;6.00;99.90;;;;;;5034004;28;20032;-85
2024/01/12 01:19:18;;;;;;;68.85;25.63;;;6.00;99.90;;;;;;5012332;28;20487;-84
2024/01/12 01:21:43;;;;;;;67.53;25.33;;;6.00;99.90;;;;;;5013014;28;20026;-84
2024/01/12 01:24:09;;;;;;;72.00;25.40;;;6.00;99.90;;;;;;5012313;28;20455;-84
2024/01/12 01:26:34;;;;;;;71.80;26.27;;;6.00;99.90;;;;;;5012959;28;20068;-84
2024/01/12 01:29:00;;;;;;;63.78;25.33;;;6.00;99.90;;;;;;5014741;28;20033;-85
2024/01/12 01:31:26;;;;;;;70.60;26.27;;;6.00;99.90;;;;;;5035165;28;20041;-84
2024/01/12 01:33:51;;;;;;;74.50;26.55;;;6.00;99.90;;;;;;5011806;28;20546;-86
2024/01/12 01:36:17;;;;;;;66.63;24.80;;;6.00;99.90;;;;;;5013666;28;20483;-84
2024/01/12 01:38:42;;;;;;;63.28;24.88;;;6.00;99.90;;;;;;5013180;28;20018;-84
2024/01/12 01:41:08;;;;;;;73.43;26.23;;;6.00;99.90;;;;;;5011472;28;20140;-85
2024/01/12 01:43:34;;;;;;;72.60;24.20;;;6.00;99.90;;;;;;5014320;28;20033;-83
2024/01/12 01:46:00;;;;;;;69.45;24.60;;;6.00;99.90;;;;;;5013733;28;20559;-84
2024/01/12 01:48:26;;;;;;;61.55;25.50;;;5.90;99.90;;;;;;5013997;28;20030;-85
2024/01/12 01:50:52;;;;;;;60.75;24.48;;;6.00;99.90;;;;;;5012150;28;20045;-85
2024/01/12 01:53:19;;;;;;;67.72;25.88;;;5.90;99.90;;;;;;5029129;28;20495;-85
2024/01/12 01:55:45;;;;;;;65.95;24.10;;;5.90;99.90;;;;;;5015256;28;20029;-84
2024/01/12 01:58:11;;;;;;;60.92;24.40;;;6.00;99.90;;;;;;5013832;28;20098;-84
2024/01/12 02:00:38;;;;;;;68.45;25.75;;;6.00;99.90;;;;;;5013104;28;20013;-84
2024/01/12 02:03:04;;;;;;;70.13;26.88;;;6.00;99.90;;;;;;5029756;28;20056;-83
2024/01/12 02:05:30;;;;;;;65.20;26.20;;;5.90;99.90;;;;;;5015201;28;20032;-83
2024/01/12 02:07:57;;;;;;;64.22;23.23;;;5.90;99.90;;;;;;5013296;28;20105;-84
2024/01/12 02:10:23;;;;;;;68.90;25.13;;;5.90;99.90;;;;;;5014612;28;20022;-84
2024/01/12 02:12:49;;;;;;;60.90;24.65;;;5.90;99.90;;;;;;5009368;28;20403;-86
2024/01/12 02:15:14;;;;;;;67.15;24.48;;;5.90;99.90;;;;;;5012050;28;20020;-86
2024/01/12 02:17:41;;;;;;;63.65;25.08;;;5.90;99.90;;;;;;5014653;28;20020;-86
2024/01/12 02:20:31;;;;;;;64.55;26.05;;;5.90;99.90;;;;;;5016295;28;20026;-86
2024/01/12 02:22:57;;;;;;;;;;;5.90;99.90;;;;;;5030286;28;20523;-83
2024/01/12 02:25:23;;;;;;;64.05;23.23;;;5.90;99.90;;;;;;5032424;28;19996;-85
2024/01/12 02:27:48;;;;;;;63.00;23.15;;;5.90;99.90;;;;;;5012179;28;20395;-85
2024/01/12 02:30:14;;;;;;;57.65;24.63;;;5.90;99.90;;;;;;5018431;28;20223;-84
2024/01/12 02:32:40;;;;;;;66.05;23.27;;;5.90;99.90;;;;;;5021367;28;20079;-83
2024/01/12 02:35:07;;;;;;;62.40;24.00;;;6.00;99.90;;;;;;5016346;28;20022;-85
2024/01/12 02:37:32;;;;;;;66.88;24.67;;;5.90;99.90;;;;;;5014349;28;20029;-83
2024/01/12 02:39:58;;;;;;;63.75;25.60;;;5.90;99.90;;;;;;5015518;28;20018;-84
2024/01/12 02:42:23;;;;;;;74.22;27.05;;;5.90;99.90;;;;;;5010535;28;20117;-85
2024/01/12 02:44:49;;;;;;;67.32;25.45;;;6.00;99.90;;;;;;5030327;28;20104;-84
2024/01/12 02:47:14;;;;;;;71.57;25.90;;;5.90;99.90;;;;;;5016716;28;20017;-85
2024/01/12 02:49:40;;;;;;;52.30;24.10;;;5.90;99.90;;;;;;5019823;28;20017;-83
2024/01/12 02:52:06;;;;;;;64.20;24.45;;;5.90;99.90;;;;;;5012680;28;20010;-84
2024/01/12 02:54:32;;;;;;;63.47;24.30;;;6.00;99.90;;;;;;5034709;28;20025;-84
2024/01/12 02:56:57;;;;;;;63.33;23.67;;;6.00;99.90;;;;;;5033383;28;20024;-85
2024/01/12 02:59:23;;;;;;;62.38;24.90;;;5.90;99.90;;;;;;5033463;28;20711;-84
2024/01/12 03:01:48;;;;;;;64.28;25.08;;;5.90;99.90;;;;;;5015077;28;20051;-85
2024/01/12 03:04:14;;;;;;;61.58;24.27;;;5.90;99.90;;;;;;5015658;28;20463;-83
2024/01/12 03:06:39;;;;;;;71.57;24.00;;;5.90;99.90;;;;;;5014551;28;20702;-85
2024/01/12 03:09:05;;;;;;;65.40;24.42;;;5.90;99.90;;;;;;5032454;28;20044;-85
2024/01/12 03:11:30;;;;;;;54.63;23.23;;;5.90;99.90;;;;;;5013473;28;20014;-83
2024/01/12 03:13:56;;;;;;;64.95;23.80;;;5.90;99.90;;;;;;5012186;28;20491;-84
2024/01/12 03:16:22;;;;;;;56.63;23.92;;;5.90;99.90;;;;;;5016622;28;20546;-83
2024/01/12 03:18:50;;;;;;;58.47;24.88;;;5.90;99.90;;;;;;5028578;28;20026;-83
2024/01/12 03:21:17;;;;;;;58.90;21.88;;;5.90;99.90;;;;;;5032650;28;20047;-84
2024/01/12 03:23:43;;;;;;;65.38;23.63;;;5.90;99.90;;;;;;5030053;28;20029;-84
2024/01/12 03:26:08;;;;;;;61.78;24.58;;;5.90;99.90;;;;;;5014731;28;20076;-85
2024/01/12 03:28:36;;;;;;;61.03;22.70;;;5.90;99.90;;;;;;5032717;28;20679;-83
2024/01/12 03:31:03;;;;;;;55.50;22.42;;;5.90;99.90;;;;;;5032501;28;20503;-84
2024/01/12 03:33:29;;;;;;;65.15;23.77;;;5.90;99.90;;;;;;5016478;28;20120;-84
2024/01/12 03:35:55;;;;;;;54.00;21.73;;;5.90;99.90;;;;;;5027545;28;20100;-84
2024/01/12 03:38:20;;;;;;;59.60;23.08;;;5.90;99.90;;;;;;5015829;28;20113;-84
2024/01/12 03:40:46;;;;;;;62.78;23.60;;;5.90;99.90;;;;;;5015085;28;20037;-83
2024/01/12 03:43:11;;;;;;;57.42;21.88;;;5.90;99.90;;;;;;5018190;28;20550;-84
2024/01/12 03:45:37;;;;;;;64.10;23.00;;;5.90;99.90;;;;;;5012630;28;20018;-84
2024/01/12 03:48:03;;;;;;;62.72;21.98;;;5.90;99.90;;;;;;5014363;28;20057;-83
2024/01/12 03:50:28;;;;;;;58.80;22.90;;;5.90;99.90;;;;;;5033673;28;20053;-85
2024/01/12 03:52:54;;;;;;;61.28;22.75;;;5.90;99.90;;;;;;5010963;28;20014;-84
2024/01/12 03:55:19;;;;;;;58.47;22.00;;;5.90;99.90;;;;;;5013091;28;20017;-84
2024/01/12 03:57:45;;;;;;;54.22;21.85;;;5.90;99.90;;;;;;5032177;28;20079;-84
2024/01/12 04:00:11;;;;;;;55.50;21.40;;;5.90;99.90;;;;;;5016942;28;20542;-84
2024/01/12 04:02:36;;;;;;;65.43;21.63;;;5.90;99.90;;;;;;5015974;28;20029;-84
2024/01/12 04:05:03;;;;;;;63.85;23.63;;;5.90;99.90;;;;;;5016372;28;20040;-84
2024/01/12 04:07:29;;;;;;;61.80;22.65;;;5.90;99.90;;;;;;5004579;28;20021;-84
2024/01/12 04:09:54;;;;;;;61.10;22.23;;;5.90;99.90;;;;;;5015692;28;20032;-84
2024/01/12 04:12:20;;;;;;;59.38;22.38;;;5.90;99.90;;;;;;5011581;28;20021;-85
2024/01/12 04:14:45;;;;;;;59.70;21.83;;;5.90;99.90;;;;;;5015463;28;20593;-85
2024/01/12 04:17:12;;;;;;;56.60;21.20;;;5.90;99.90;;;;;;5030953;28;20104;-83
2024/01/12 04:19:37;;;;;;;61.00;22.48;;;5.90;99.90;;;;;;5034725;28;20043;-84
2024/01/12 04:22:03;;;;;;;61.40;22.75;;;5.90;99.90;;;;;;5036103;28;20491;-84
2024/01/12 04:24:28;;;;;;;58.72;21.50;;;5.90;99.90;;;;;;5030053;28;20021;-85
2024/01/12 04:26:54;;;;;;;68.60;22.95;;;5.80;99.90;;;;;;5015335;28;20027;-85
2024/01/12 04:29:20;;;;;;;64.75;23.40;;;5.80;99.90;;;;;;5013119;28;20040;-84
2024/01/12 04:31:45;;;;;;;51.80;21.27;;;5.80;99.90;;;;;;5013559;28;20112;-84
2024/01/12 04:34:11;;;;;;;58.05;22.55;;;5.80;99.90;;;;;;5018144;28;20080;-84
2024/01/12 04:36:37;;;;;;;58.72;23.02;;;5.80;99.90;;;;;;5030335;28;20043;-84
2024/01/12 04:39:02;;;;;;;61.95;22.65;;;5.90;99.90;;;;;;5026120;28;20076;-84
2024/01/12 04:41:28;;;;;;;62.95;22.48;;;5.80;99.90;;;;;;5015528;28;20105;-84
2024/01/12 04:43:53;;;;;;;56.92;22.00;;;5.90;99.90;;;;;;5013595;28;20029;-84
2024/01/12 04:46:19;;;;;;;61.05;21.90;;;5.90;99.90;;;;;;5018129;28;20041;-84
2024/01/12 04:48:45;;;;;;;56.53;22.92;;;5.80;99.90;;;;;;5011313;28;20021;-84
2024/01/12 04:51:10;;;;;;;67.13;23.13;;;5.80;99.90;;;;;;5010892;28;20403;-83
2024/01/12 04:53:36;;;;;;;58.45;22.02;;;5.80;99.90;;;;;;5015810;28;20026;-84
2024/01/12 04:56:02;;;;;;;57.30;22.98;;;5.80;99.90;;;;;;5013021;28;20104;-84
2024/01/12 04:58:27;;;;;;;60.25;23.17;;;5.80;99.90;;;;;;5015847;28;20407;-84
2024/01/12 05:00:53;;;;;;;65.45;23.35;;;5.80;99.90;;;;;;5011681;28;20025;-84
2024/01/12 05:03:18;;;;;;;59.17;22.13;;;5.80;99.90;;;;;;5025963;28;20480;-84
2024/01/12 05:05:44;;;;;;;67.65;23.33;;;5.80;99.90;;;;;;5025062;28;20551;-84
2024/01/12 05:08:10;;;;;;;60.42;24.10;;;5.80;99.90;;;;;;5013470;28;20025;-84
2024/01/12 05:10:35;;;;;;;60.88;22.58;;;5.80;99.90;;;;;;5029554;28;20151;-84
2024/01/12 05:13:01;;;;;;;58.75;21.35;;;5.80;99.90;;;;;;5013486;28;20404;-84
2024/01/12 05:15:26;;;;;;;65.32;22.42;;;5.80;99.90;;;;;;5009323;28;20411;-84
2024/01/12 05:17:52;;;;;;;60.13;22.73;;;5.80;99.90;;;;;;5031224;28;20041;-84
2024/01/12 05:20:17;;;;;;;59.60;23.83;;;5.80;99.90;;;;;;5013153;28;20025;-84
2024/01/12 05:22:43;;;;;;;66.50;23.15;;;5.80;99.90;;;;;;5030966;28;20028;-84
2024/01/12 05:25:09;;;;;;;65.63;23.33;;;5.80;99.90;;;;;;5027110;28;20028;-84
2024/01/12 05:27:35;;;;;;;60.67;22.75;;;5.80;99.90;;;;;;5008037;28;20018;-84
2024/01/12 05:30:01;;;;;;;64.05;22.20;;;5.80;99.90;;;;;;5028976;28;20506;-84
2024/01/12 05:32:26;;;;;;;69.43;24.30;;;5.80;99.90;;;;;;5030766;28;20018;-84
2024/01/12 05:34:52;;;;;;;66.43;23.83;;;5.80;99.90;;;;;;5012106;28;20079;-84
2024/01/12 05:37:17;;;;;;;63.67;22.92;;;5.80;99.90;;;;;;5011167;28;20028;-85
2024/01/12 05:39:43;;;;;;;67.75;24.17;;;5.80;99.90;;;;;;5010295;28;20025;-84
2024/01/12 05:42:08;;;;;;;73.00;23.63;;;5.80;99.90;;;;;;5025285;28;20029;-86
2024/01/12 05:44:34;;;;;;;58.15;21.50;;;5.80;99.90;;;;;;5030731;28;20029;-86
2024/01/12 05:46:59;;;;;;;62.70;22.88;;;5.80;99.90;;;;;;5013706;28;20476;-84
2024/01/12 05:49:25;;;;;;;61.10;22.77;;;5.80;99.90;;;;;;5015627;28;20484;-84
2024/01/12 05:51:51;;;;;;;59.38;22.90;;;5.80;99.90;;;;;;5008286;28;20013;-84
2024/01/12 05:54:16;;;;;;;68.15;24.50;;;5.80;99.90;;;;;;5012877;28;20025;-84
2024/01/12 05:56:42;;;;;;;66.18;23.17;;;5.80;99.90;;;;;;5011488;28;20040;-85
2024/01/12 05:59:08;;;;;;;65.95;22.70;;;5.80;99.90;;;;;;5027144;28;20769;-85
2024/01/12 06:01:34;;;;;;;69.68;23.25;;;5.80;99.90;;;;;;5013555;28;20493;-84
2024/01/12 06:03:59;;;;;;;64.60;23.20;;;5.80;99.90;;;;;;5014322;28;20026;-84
2024/01/12 06:06:26;;;;;;;63.10;22.27;;;5.80;99.90;;;;;;5017031;28;20029;-85
2024/01/12 06:08:51;;;;;;;57.00;22.58;;;5.80;99.90;;;;;;5016074;28;20026;-84
2024/01/12 06:11:17;;;;;;;67.72;23.30;;;5.80;99.90;;;;;;5016699;28;20023;-84
2024/01/12 06:13:42;;;;;;;62.67;21.40;;;5.80;99.90;;;;;;5015452;28;20028;-84
2024/01/12 06:16:08;;;;;;;62.30;22.15;;;5.80;99.90;;;;;;5015630;28;20037;-84
2024/01/12 06:18:34;;;;;;;63.00;24.27;;;5.80;99.90;;;;;;5017773;28;20075;-84
2024/01/12 06:20:59;;;;;;;64.88;22.63;;;5.80;99.90;;;;;;5016846;28;20033;-84
2024/01/12 06:23:25;;;;;;;65.43;23.88;;;5.80;99.90;;;;;;5032565;28;20065;-84
2024/01/12 06:25:50;;;;;;;48.22;21.58;;;5.80;99.90;;;;;;5013651;28;20079;-83
2024/01/12 06:28:16;;;;;;;60.22;23.38;;;5.80;99.90;;;;;;5014886;28;20395;-85
2024/01/12 06:30:41;;;;;;;54.38;21.83;;;5.80;99.90;;;;;;5031959;28;20393;-84
2024/01/12 06:33:07;;;;;;;57.88;22.92;;;5.80;99.90;;;;;;5031471;28;20475;-84
2024/01/12 06:35:32;;;;;;;63.25;23.63;;;5.80;99.90;;;;;;5033869;28;20018;-84
2024/01/12 06:37:58;;;;;;;64.60;24.38;;;5.80;99.90;;;;;;5017566;28;20574;-85
2024/01/12 06:40:23;;;;;;;68.90;23.25;;;5.80;99.90;;;;;;5014313;28;20447;-84
2024/01/12 06:42:49;;;;;;;63.50;23.00;;;5.80;99.90;;;;;;5028278;28;20884;-84
2024/01/12 06:45:15;;;;;;;58.83;24.45;;;5.70;99.90;;;;;;5015062;28;20549;-83
2024/01/12 06:47:40;;;;;;;56.47;21.30;;;5.80;99.90;;;;;;5033312;28;20025;-84
2024/01/12 06:50:06;;;;;;;63.88;21.52;;;5.70;99.90;;;;;;5027915;28;20057;-84
2024/01/12 06:52:32;;;;;;;58.92;21.23;;;5.70;99.90;;;;;;5014880;28;20494;-83
2024/01/12 06:54:58;;;;;;;59.70;23.17;;;5.70;99.90;;;;;;5014415;28;20026;-84
2024/01/12 06:57:24;;;;;;;70.72;21.15;;;5.70;99.90;;;;;;5027062;28;20079;-84
2024/01/12 06:59:50;;;;;;;52.88;21.40;;;5.70;99.90;;;;;;5014321;28;20021;-85
2024/01/12 07:02:15;;;;;;;57.60;21.52;;;5.70;99.90;;;;;;5014842;28;20025;-84
2024/01/12 07:04:41;;;;;;;57.97;20.95;;;5.70;99.90;;;;;;5013045;28;20543;-85
2024/01/12 07:07:09;;;;;;;54.42;21.85;;;5.70;99.90;;;;;;5013148;28;20078;-85
2024/01/12 07:09:34;;;;;;;53.38;20.45;;;5.70;99.90;;;;;;5015353;28;20484;-84
2024/01/12 07:12:00;;;;;;;52.33;20.67;;;5.70;99.90;;;;;;5016092;28;20021;-86
2024/01/12 07:14:25;;;;;;;63.47;22.08;;;5.70;99.90;;;;;;5015488;28;20140;-84
2024/01/12 07:16:51;;;;;;;62.97;22.25;;;5.70;99.90;;;;;;5015065;28;20368;-84
2024/01/12 07:19:17;;;;;;;55.05;22.33;;;5.70;99.90;;;;;;5013161;28;20025;-85
2024/01/12 07:21:42;;;;;;;50.00;19.48;;;5.70;99.90;;;;;;5027485;28;20032;-84
2024/01/12 07:24:08;;;;;;;50.35;19.90;;;5.70;99.90;;;;;;5032302;28;20040;-86
2024/01/12 07:26:33;;;;;;;51.72;19.65;;;5.70;99.90;;;;;;5030288;28;20026;-85
2024/01/12 07:29:00;;;;;;;60.55;23.10;;;5.70;99.90;;;;;;5011703;28;20025;-84
2024/01/12 07:31:26;;;;;;;55.90;20.55;;;5.70;99.90;;;;;;5027028;28;20018;-84
2024/01/12 07:33:52;;;;;;;55.30;21.33;;;5.70;99.90;;;;;;5015450;28;20052;-85
2024/01/12 07:36:17;;;;;;;63.00;21.80;;;5.70;99.90;;;;;;5032531;28;20025;-85
2024/01/12 07:38:43;;;;;;;52.10;20.17;;;5.70;99.90;;;;;;5016210;28;20021;-86
2024/01/12 07:41:08;;;;;;;53.40;21.63;;;5.70;99.90;;;;;;5012866;28;20044;-85
2024/01/12 07:43:34;;;;;;;67.55;23.13;;;5.70;99.90;;;;;;5012694;28;20100;-85
2024/01/12 07:45:59;;;;;;;54.25;21.20;;;5.80;99.90;;;;;;5014031;28;20044;-85
2024/01/12 07:48:25;;;;;;;54.10;20.55;;;5.80;99.90;;;;;;5011475;28;20030;-84
2024/01/12 07:50:51;;;;;;;52.50;20.67;;;5.80;99.90;;;;;;5015265;28;20017;-84
2024/01/12 07:53:16;;;;;;;54.45;19.58;;;5.80;99.90;;;;;;5013200;28;20032;-84
2024/01/12 07:55:42;;;;;;;53.33;21.08;;;5.80;99.90;;;;;;5010503;28;20029;-85
2024/01/12 07:58:07;;;;;;;54.33;21.25;;;5.80;99.90;;;;;;5012699;28;20105;-85
2024/01/12 08:00:33;;;;;;;54.40;22.00;;;5.80;99.90;;;;;;5013390;28;20125;-84
2024/01/12 08:02:59;;;;;;;53.83;21.05;;;5.80;99.90;;;;;;5013726;28;20040;-85
2024/01/12 08:05:24;;;;;;;54.85;22.58;;;5.80;99.90;;;;;;5014229;28;20656;-85
2024/01/12 08:07:50;;;;;;;57.45;20.67;;;5.80;99.90;;;;;;5011679;28;20017;-85
2024/01/12 08:10:17;;;;;;;57.97;21.50;;;5.80;99.90;;;;;;5011140;28;20033;-85
2024/01/12 08:12:43;;;;;;;53.80;21.85;;;5.80;99.90;;;;;;5008708;28;20071;-85
2024/01/12 08:15:09;;;;;;;64.22;22.05;;;5.80;99.90;;;;;;5031172;28;20428;-85
2024/01/12 08:17:36;;;;;;;57.72;21.10;;;5.90;99.90;;;;;;5010958;28;20164;-85
2024/01/12 08:20:02;;;;;;;51.03;21.42;;;5.80;99.90;;;;;;5012969;28;20483;-84
2024/01/12 08:22:27;;;;;;;51.25;21.33;;;5.90;99.90;;;;;;5024720;28;20021;-86
2024/01/12 08:24:53;;;;;;;51.92;22.40;;;5.90;99.90;;;;;;5011388;28;20580;-85
2024/01/12 08:27:18;;;;;;;57.53;21.45;;;5.90;99.90;;;;;;5030027;28;20033;-85
2024/01/12 08:29:44;;;;;;;55.63;22.05;;;5.90;99.90;;;;;;5028671;28;20029;-86
2024/01/12 08:32:10;;;;;;;56.15;21.20;;;5.90;99.90;;;;;;5012893;28;20830;-85
2024/01/12 08:34:35;;;;;;;26.38;12.45;;;5.90;99.90;;;;;;5011205;28;20496;-84
2024/01/12 08:37:01;;;;;;;37.13;14.90;;;9.00;99.90;;;;;;5012187;28;20025;-84
2024/01/12 08:39:26;;;;;;;44.92;15.55;;;10.10;99.90;;;;;;5026405;28;20080;-82
2024/01/12 08:41:52;;;;;;;41.72;16.05;;;10.40;97.70;;;;;;5029248;28;20084;-85
2024/01/12 08:44:17;;;;;;;45.05;18.77;;;10.60;95.30;;;;;;5012379;28;20526;-85
2024/01/12 08:46:43;;;;;;;58.10;18.27;;;11.00;92.50;;;;;;5006560;28;20076;-82
2024/01/12 08:49:09;;;;;;;53.95;18.58;;;11.00;91.40;;;;;;5023438;28;20091;-84
2024/01/12 08:51:34;;;;;;;52.55;17.33;;;11.40;87.50;;;;;;5026410;28;20027;-86
2024/01/12 08:54:00;;;;;;;38.08;17.52;;;11.50;86.20;;;;;;5028447;28;20395;-83
2024/01/12 08:56:26;;;;;;;47.47;19.17;;;11.60;86.20;;;;;;5024982;28;20029;-84
2024/01/12 08:58:52;;;;;;;43.75;17.30;;;11.60;85.80;;;;;;5007477;28;20036;-84
2024/01/12 09:01:18;;;;;;;46.33;17.55;;;11.70;85.20;;;;;;5010614;28;20025;-83
2024/01/12 09:03:43;;;;;;;38.28;17.50;;;11.70;84.30;;;;;;5024412;28;20119;-84
2024/01/12 09:06:10;;;;;;;39.78;16.98;;;11.70;84.40;;;;;;5028747;28;20491;-83
2024/01/12 09:08:35;;;;;;;46.78;19.27;;;11.70;83.80;;;;;;5012976;28;20033;-83
2024/01/12 09:11:01;;;;;;;44.00;19.15;;;11.70;83.10;;;;;;5027867;28;20071;-84
2024/01/12 09:13:27;;;;;;;48.95;19.02;;;11.80;81.70;;;;;;5009534;28;20025;-83
2024/01/12 09:15:52;;;;;;;46.03;18.48;;;11.80;80.00;;;;;;5029801;28;20021;-83
2024/01/12 09:18:18;;;;;;;51.13;20.52;;;12.00;78.40;;;;;;5011659;28;20033;-84
2024/01/12 09:20:43;;;;;;;44.63;18.42;;;12.00;78.20;;;;;;5026093;28;20029;-85
2024/01/12 09:23:09;;;;;;;50.45;18.67;;;12.00;78.90;;;;;;5020180;28;20033;-84
2024/01/12 09:25:35;;;;;;;43.50;16.58;;;11.80;78.70;;;;;;5020738;28;20423;-84
2024/01/12 09:28:00;;;;;;;45.95;18.63;;;11.80;79.90;;;;;;5025686;28;20065;-82
2024/01/12 09:30:26;;;;;;;43.75;19.48;;;11.70;79.50;;;;;;5012035;28;20025;-84
2024/01/12 09:32:51;;;;;;;52.42;19.88;;;11.80;78.40;;;;;;5024349;28;20025;-84
2024/01/12 09:35:17;;;;;;;48.92;19.52;;;11.90;76.90;;;;;;5025088;28;20033;-84
2024/01/12 09:37:43;;;;;;;51.50;19.92;;;12.00;76.10;;;;;;5020584;28;20092;-82
2024/01/12 09:40:09;;;;;;;50.63;18.98;;;12.10;75.20;;;;;;5010376;28;20068;-85
2024/01/12 09:42:35;;;;;;;51.25;20.27;;;12.20;74.00;;;;;;5010076;28;20105;-83
2024/01/12 09:45:01;;;;;;;53.00;20.77;;;12.20;74.60;;;;;;5026418;28;20080;-82
2024/01/12 09:47:27;;;;;;;48.08;19.65;;;12.10;72.80;;;;;;5023716;28;20038;-84
2024/01/12 09:49:53;;;;;;;60.97;22.02;;;11.90;72.80;;;;;;5011498;28;20128;-85
2024/01/12 09:52:19;;;;;;;56.83;21.25;;;11.80;75.20;;;;;;5008488;28;20021;-85
2024/01/12 09:54:45;;;;;;;54.03;21.05;;;11.70;73.90;;;;;;5027669;28;20463;-85
2024/01/12 09:57:16;;;;;;;62.47;21.77;;;11.80;74.60;;;;;;5009776;28;20451;-85
2024/01/12 09:59:43;;;;;;;60.50;20.67;;;11.70;72.70;;;;;;5009017;28;20026;-82
2024/01/12 10:02:12;;;;;;;58.97;21.55;;;11.70;73.60;;;;;;5025634;28;20491;-84
2024/01/12 10:04:38;;;;;;;50.72;20.98;;;11.80;73.30;;;;;;5005181;28;20552;-84
2024/01/12 10:07:04;;;;;;;54.45;19.13;;;11.80;75.10;;;;;;5013780;28;20120;-82
2024/01/12 10:09:29;;;;;;;53.65;21.40;;;11.80;76.30;;;;;;5012842;28;20113;-83
2024/01/12 10:11:56;;;;;;;55.75;20.08;;;11.90;73.70;;;;;;5006142;28;20017;-83
2024/01/12 10:14:22;;;;;;;53.78;20.95;;;11.90;73.80;;;;;;5021749;28;20065;-82
2024/01/12 10:16:58;;;;;;;55.45;21.25;;;11.90;74.90;;;;;;5006456;28;20100;-85
2024/01/12 10:19:25;;;;;;;50.88;20.35;;;11.90;74.30;;;;;;5007996;28;20069;-82
2024/01/12 10:21:51;;;;;;;55.78;20.65;;;11.90;73.80;;;;;;5025875;28;20041;-85
2024/01/12 10:24:18;;;;;;;57.88;21.42;;;11.90;74.90;;;;;;5024584;28;20424;-82
2024/01/12 10:26:46;;;;;;;55.38;21.30;;;11.70;76.10;;;;;;5005123;28;20117;-83
2024/01/12 10:29:13;;;;;;;60.05;22.60;;;11.70;73.90;;;;;;5011077;28;20021;-82
2024/01/12 10:31:41;;;;;;;57.65;19.88;;;11.80;73.80;;;;;;5028294;28;20533;-85
2024/01/12 10:34:11;;;;;;;62.75;22.92;;;11.90;71.40;;;;;;5020790;28;20040;-86
2024/01/12 10:36:37;;;;;;;73.93;23.60;;;10.60;77.30;;;;;;5026214;28;20032;-85
2024/01/12 10:39:03;;;;;;;68.45;25.55;;;9.10;86.60;;;;;;5005751;28;20056;-86
2024/01/12 10:41:32;;;;;;;65.50;23.50;;;8.30;91.50;;;;;;5025776;28;20037;-85
2024/01/12 10:44:03;;;;;;;75.93;25.80;;;8.00;94.00;;;;;;5031576;28;20056;-84
2024/01/12 10:46:37;;;;;;;75.75;24.25;;;7.80;96.10;;;;;;5025111;28;20052;-85
2024/01/12 10:49:13;;;;;;;75.95;25.33;;;7.60;98.00;;;;;;5019052;28;20013;-84
2024/01/12 10:51:50;;;;;;;72.75;26.88;;;7.60;99.60;;;;;;5028589;28;20030;-84
2024/01/12 10:54:23;;;;;;;82.40;27.10;;;7.50;99.90;;;;;;5032624;28;20040;-85
2024/01/12 10:56:49;;;;;;;69.75;26.00;;;7.50;99.90;;;;;;5019157;28;20633;-86
2024/01/12 10:59:15;;;;;;;79.03;26.75;;;7.50;99.90;;;;;;5017491;28;20029;-85
2024/01/12 11:01:41;;;;;;;71.53;26.80;;;7.40;99.90;;;;;;5032960;28;20026;-84
2024/01/12 11:04:08;;;;;;;72.22;28.13;;;7.40;99.90;;;;;;5028107;28;20033;-84
2024/01/12 11:06:35;;;;;;;75.43;27.38;;;7.40;99.90;;;;;;5014106;28;20021;-84
2024/01/12 11:09:01;;;;;;;70.82;27.90;;;7.40;99.90;;;;;;5035509;28;20394;-85
2024/01/12 11:11:35;;;;;;;83.38;28.80;;;7.30;99.90;;;;;;5015965;28;20087;-85
2024/01/12 11:14:02;;;;;;;77.90;29.20;;;7.30;99.90;;;;;;5020536;28;20596;-85
2024/01/12 11:16:28;;;;;;;74.20;29.67;;;7.30;99.90;;;;;;5024132;28;20100;-85
2024/01/12 11:18:53;;;;;;;79.95;29.92;;;7.30;99.90;;;;;;5030773;28;20117;-85
2024/01/12 11:21:24;;;;;;;81.60;28.55;;;7.30;99.90;;;;;;5019248;28;20111;-85
2024/01/12 11:23:50;;;;;;;86.65;31.35;;;7.20;99.90;;;;;;5012536;28;20080;-85
2024/01/12 11:26:17;;;;;;;92.07;29.05;;;7.20;99.90;;;;;;5011633;28;20037;-85
2024/01/12 11:28:43;;;;;;;94.00;29.95;;;7.20;99.90;;;;;;5029382;28;20055;-84
2024/01/12 11:31:09;;;;;;;91.45;29.67;;;7.20;99.90;;;;;;5030578;28;20622;-85
2024/01/12 11:33:41;;;;;;;84.00;28.35;;;7.20;99.90;;;;;;5014438;28;20680;-84
2024/01/12 11:36:13;;;;;;;92.15;31.65;;;7.20;99.90;;;;;;5015290;28;20059;-86
2024/01/12 11:38:39;;;;;;;94.50;29.88;;;7.20;99.90;;;;;;5017795;28;20029;-85
2024/01/12 11:41:12;;;;;;;85.13;29.23;;;7.20;99.90;;;;;;5026233;28;20040;-85
2024/01/12 11:43:37;;;;;;;82.28;29.95;;;7.20;99.90;;;;;;5014173;28;20101;-84
2024/01/12 11:46:04;;;;;;;89.05;30.05;;;7.20;99.90;;;;;;5019995;28;20073;-85
2024/01/12 11:48:31;;;;;;;100.90;32.00;;;7.30;99.90;;;;;;5015885;28;20045;-84
2024/01/12 11:50:56;;;;;;;85.43;32.45;;;7.20;99.90;;;;;;5010389;28;20084;-86
2024/01/12 11:53:22;;;;;;;90.90;33.25;;;7.20;99.90;;;;;;5013176;28;20491;-85
2024/01/12 11:55:49;;;;;;;103.15;33.92;;;7.20;99.90;;;;;;5017702;28;20026;-86
2024/01/12 11:58:14;;;;;;;91.93;31.10;;;7.20;99.90;;;;;;5017945;28;20025;-84
2024/01/12 12:00:40;;;;;;;81.28;32.10;;;7.20;99.90;;;;;;5016184;28;20030;-82
2024/01/12 12:03:07;;;;;;;83.43;29.48;;;7.10;99.90;;;;;;5031551;28;20040;-86
2024/01/12 12:05:33;;;;;;;89.18;31.02;;;8.90;96.40;;;;;;5025714;28;20105;-85
2024/01/12 12:07:58;;;;;;;91.68;31.88;;;7.90;99.90;;;;;;5009665;28;20133;-84
2024/01/12 12:10:25;;;;;;;96.28;30.25;;;7.40;99.90;;;;;;5019786;28;20029;-85
2024/01/12 12:12:51;;;;;;;93.40;31.85;;;7.30;99.90;;;;;;5016656;28;20013;-86
2024/01/12 12:15:16;;;;;;;94.40;32.53;;;7.10;99.90;;;;;;5014481;28;20549;-84
2024/01/12 12:17:45;;;;;;;90.13;31.40;;;7.10;99.90;;;;;;5011792;28;20025;-84
2024/01/12 12:20:12;;;;;;;98.97;31.90;;;7.00;99.90;;;;;;5013395;28;20468;-85
2024/01/12 12:22:45;;;;;;;97.85;34.63;;;7.00;99.90;;;;;;5009907;28;20542;-85
2024/01/12 12:25:13;;;;;;;104.97;32.80;;;6.90;99.90;;;;;;5015159;28;20074;-84
2024/01/12 12:27:40;;;;;;;111.38;36.90;;;6.90;99.90;;;;;;5029318;28;20032;-85
2024/01/12 12:30:10;;;;;;;112.55;36.30;;;6.90;99.90;;;;;;5008959;28;20025;-85